createdAt,value
2022-09-07T00:00:56.345Z,10.40
2022-09-07T00:03:24.403Z,11.18
2022-09-07T00:05:52.789Z,11.35
2022-09-07T00:08:23.343Z,11.70
2022-09-07T00:10:57.067Z,11.03
2022-09-07T00:13:27.685Z,10.65
2022-09-07T00:15:55.531Z,10.55
2022-09-07T00:18:23.174Z,10.77
2022-09-07T00:21:02.212Z,11.02
2022-09-07T00:23:31.415Z,10.47
2022-09-07T00:26:00.879Z,10.90
2022-09-07T00:28:29.232Z,10.63
2022-09-07T00:30:57.221Z,10.10
2022-09-07T00:33:24.815Z,10.45
2022-09-07T00:35:52.393Z,11.07
2022-09-07T00:38:20.727Z,11.40
2022-09-07T00:40:48.254Z,11.15
2022-09-07T00:43:34.063Z,11.15
2022-09-07T00:46:03.702Z,10.82
2022-09-07T00:48:37.448Z,10.63
2022-09-07T00:51:10.243Z,11.35
2022-09-07T00:53:45.036Z,11.30
2022-09-07T00:56:13.864Z,11.65
2022-09-07T00:58:43.736Z,12.73
2022-09-07T01:01:12.075Z,11.53
2022-09-07T01:03:44.231Z,11.82
2022-09-07T01:06:18.995Z,11.48
2022-09-07T01:08:51.584Z,12.10
2022-09-07T01:11:21.923Z,11.18
2022-09-07T01:13:52.468Z,12.07
2022-09-07T01:16:46.483Z,11.32
2022-09-07T01:19:24.878Z,12.73
2022-09-07T01:22:10.781Z,11.23
2022-09-07T01:25:03.170Z,12.48
2022-09-07T01:27:49.456Z,11.73
2022-09-07T01:30:23.212Z,11.30
2022-09-07T01:33:30.948Z,11.98
2022-09-07T01:36:23.239Z,11.85
2022-09-07T01:38:55.347Z,11.95
2022-09-07T01:41:41.619Z,11.70
2022-09-07T01:44:19.589Z,12.02
2022-09-07T01:46:59.124Z,12.40
2022-09-07T01:49:33.933Z,11.88
2022-09-07T01:52:07.963Z,11.48
2022-09-07T01:54:42.204Z,11.87
2022-09-07T01:57:16.689Z,11.20
2022-09-07T01:59:53.533Z,12.00
2022-09-07T02:02:34.375Z,10.80
2022-09-07T02:05:09.459Z,11.88
2022-09-07T02:07:40.099Z,11.47
2022-09-07T02:10:11.539Z,11.77
2022-09-07T02:12:50.995Z,12.48
2022-09-07T02:15:27.592Z,11.48
2022-09-07T02:18:03.160Z,12.05
2022-09-07T02:20:36.615Z,12.13
2022-09-07T02:23:11.717Z,11.57
2022-09-07T02:25:45.808Z,11.60
2022-09-07T02:28:26.333Z,12.57
2022-09-07T02:30:54.233Z,11.80
2022-09-07T02:33:22.234Z,11.83
2022-09-07T02:35:50.799Z,12.35
2022-09-07T02:38:19.258Z,11.88
2022-09-07T02:40:54.579Z,12.20
2022-09-07T02:43:24.675Z,11.80
2022-09-07T02:46:00.404Z,11.03
2022-09-07T02:48:28.173Z,12.05
2022-09-07T02:51:11.763Z,11.77
2022-09-07T02:54:07.148Z,12.35
2022-09-07T02:56:45.942Z,12.30
2022-09-07T02:59:38.720Z,11.63
2022-09-07T03:03:00.784Z,11.55
2022-09-07T03:05:44.015Z,12.73
2022-09-07T03:08:24.099Z,12.50
2022-09-07T03:10:53.572Z,11.95
2022-09-07T03:13:24.796Z,11.93
2022-09-07T03:15:55.951Z,11.80
2022-09-07T03:18:25.666Z,12.37
2022-09-07T03:20:53.603Z,11.85
2022-09-07T03:23:21.103Z,11.15
2022-09-07T03:25:49.196Z,11.20
2022-09-07T03:28:17.550Z,12.43
2022-09-07T03:30:47.413Z,12.68
2022-09-07T03:33:16.340Z,11.80
2022-09-07T03:35:45.467Z,12.02
2022-09-07T03:38:13.140Z,11.17
2022-09-07T03:40:40.738Z,11.60
2022-09-07T03:43:08.504Z,11.82
2022-09-07T03:45:35.963Z,10.70
2022-09-07T03:48:03.407Z,11.43
2022-09-07T03:50:31.113Z,11.10
2022-09-07T03:52:58.548Z,12.70
2022-09-07T03:55:25.981Z,12.27
2022-09-07T03:57:53.749Z,11.88
2022-09-07T04:00:21.172Z,12.05
2022-09-07T04:02:48.956Z,12.90
2022-09-07T04:05:17.993Z,12.18
2022-09-07T04:07:48.354Z,12.40
2022-09-07T04:10:16.175Z,13.02
2022-09-07T04:12:43.603Z,12.15
2022-09-07T04:15:11.564Z,12.03
2022-09-07T04:17:39.751Z,12.98
2022-09-07T04:20:07.868Z,11.95
2022-09-07T04:22:35.310Z,11.63
2022-09-07T04:25:03.127Z,12.60
2022-09-07T04:27:31.032Z,13.53
2022-09-07T04:29:58.464Z,12.68
2022-09-07T04:32:26.224Z,13.88
2022-09-07T04:34:54.485Z,12.60
2022-09-07T04:37:22.561Z,12.60
2022-09-07T04:39:50.363Z,12.67
2022-09-07T04:42:18.702Z,12.80
2022-09-07T04:44:48.868Z,12.65
2022-09-07T04:47:17.786Z,13.52
2022-09-07T04:49:45.223Z,13.45
2022-09-07T04:52:12.711Z,12.40
2022-09-07T04:54:40.554Z,13.32
2022-09-07T04:57:09.940Z,12.93
2022-09-07T04:59:37.572Z,13.52
2022-09-07T05:02:05.417Z,13.35
2022-09-07T05:04:35.889Z,13.23
2022-09-07T05:07:03.403Z,13.05
2022-09-07T05:09:31.215Z,12.35
2022-09-07T05:11:59.172Z,13.45
2022-09-07T05:14:26.668Z,13.82
2022-09-07T05:16:54.425Z,14.33
2022-09-07T05:19:21.875Z,14.13
2022-09-07T05:21:49.374Z,13.45
2022-09-07T05:24:17.091Z,13.07
2022-09-07T05:26:44.517Z,13.57
2022-09-07T05:31:59.919Z,14.57
2022-09-07T05:36:56.343Z,14.30
2022-09-07T05:39:24.273Z,14.55
2022-09-07T05:41:51.823Z,13.47
2022-09-07T05:47:07.326Z,14.32
2022-09-07T05:49:34.771Z,15.10
2022-09-07T05:52:02.357Z,14.02
2022-09-07T05:54:30.087Z,13.53
2022-09-07T05:56:57.515Z,14.32
2022-09-07T05:59:25.029Z,14.57
2022-09-07T06:01:52.800Z,13.57
2022-09-07T06:04:20.674Z,13.77
2022-09-07T06:07:11.034Z,13.90
2022-09-07T06:09:36.114Z,15.23
2022-09-07T06:12:05.543Z,15.05
2022-09-07T06:14:34.128Z,14.38
2022-09-07T06:17:01.944Z,14.55
2022-09-07T06:19:29.460Z,14.13
2022-09-07T06:21:57.479Z,12.68
2022-09-07T06:24:25.227Z,12.25
2022-09-07T06:26:52.653Z,13.55
2022-09-07T06:29:20.080Z,12.32
2022-09-07T06:34:35.592Z,14.05
2022-09-07T06:37:03.408Z,12.00
2022-09-07T06:39:30.891Z,12.70
2022-09-07T06:44:31.552Z,11.73
2022-09-07T06:49:29.715Z,12.90
2022-09-07T06:51:57.443Z,12.90
2022-09-07T06:57:12.523Z,12.30
2022-09-07T06:59:39.972Z,12.65
2022-09-07T07:02:08.217Z,13.02
2022-09-07T07:04:40.473Z,12.13
2022-09-07T07:07:12.612Z,12.23
2022-09-07T07:09:41.518Z,11.80
2022-09-07T07:12:10.469Z,12.00
2022-09-07T07:14:42.470Z,12.07
2022-09-07T07:17:13.663Z,13.32
2022-09-07T07:19:41.178Z,12.23
2022-09-07T07:24:56.408Z,11.45
2022-09-07T07:27:24.085Z,11.18
2022-09-07T07:29:52.655Z,10.68
2022-09-07T07:32:20.417Z,11.07
2022-09-07T07:34:48.200Z,10.47
2022-09-07T07:37:16.252Z,11.10
2022-09-07T07:42:32.260Z,11.15
2022-09-07T07:47:53.490Z,11.17
2022-09-07T07:50:37.009Z,11.05
2022-09-07T07:55:53.142Z,11.12
2022-09-07T07:58:20.853Z,11.23
2022-09-07T08:00:54.802Z,9.40
2022-09-07T08:03:25.048Z,9.48
2022-09-07T08:05:52.996Z,10.38
2022-09-07T08:08:20.928Z,10.88
2022-09-07T08:10:48.943Z,10.70
2022-09-07T08:13:17.153Z,10.50
2022-09-07T08:15:45.319Z,10.18
2022-09-07T08:18:14.000Z,10.23
2022-09-07T08:20:41.822Z,10.38
2022-09-07T08:23:09.628Z,10.32
2022-09-07T08:25:37.468Z,10.03
2022-09-07T08:28:05.532Z,10.43
2022-09-07T08:30:32.918Z,10.30
2022-09-07T08:33:00.627Z,10.55
2022-09-07T08:35:28.243Z,10.63
2022-09-07T08:37:55.609Z,10.90
2022-09-07T08:40:23.271Z,10.27
2022-09-07T08:43:18.529Z,11.30
2022-09-07T08:45:51.696Z,10.70
2022-09-07T08:48:29.296Z,11.77
2022-09-07T08:51:36.269Z,12.00
2022-09-07T08:54:05.649Z,11.95
2022-09-07T08:57:20.561Z,12.55
2022-09-07T08:59:47.162Z,12.00
2022-09-07T09:02:38.459Z,13.40
2022-09-07T09:06:11.756Z,11.67
2022-09-07T09:08:31.131Z,11.27
2022-09-07T09:11:17.865Z,12.75
2022-09-07T09:14:22.676Z,12.50
2022-09-07T09:16:57.740Z,11.82
2022-09-07T09:19:31.051Z,12.97
2022-09-07T09:22:18.168Z,13.40
2022-09-07T09:24:57.938Z,12.45
2022-09-07T09:27:25.391Z,13.23
2022-09-07T09:29:53.136Z,13.45
2022-09-07T09:32:39.911Z,12.83
2022-09-07T09:35:24.648Z,13.93
2022-09-07T09:37:52.122Z,14.02
2022-09-07T09:40:30.799Z,13.95
2022-09-07T09:43:01.709Z,14.40
2022-09-07T09:46:12.195Z,13.50
2022-09-07T09:48:32.344Z,12.95
2022-09-07T09:54:09.381Z,13.45
2022-09-07T09:56:45.371Z,13.25
2022-09-07T10:05:28.620Z,12.25
2022-09-07T10:07:56.918Z,11.05
2022-09-07T10:10:28.792Z,12.27
2022-09-07T10:12:56.700Z,12.53
2022-09-07T10:15:30.081Z,11.12
2022-09-07T10:17:59.881Z,11.52
2022-09-07T10:20:38.312Z,11.55
2022-09-07T10:23:18.636Z,11.82
2022-09-07T10:25:47.494Z,10.93
2022-09-07T10:28:24.836Z,11.98
2022-09-07T10:31:07.337Z,11.63
2022-09-07T10:36:52.772Z,13.50
2022-09-07T10:39:28.109Z,12.30
2022-09-07T10:42:20.497Z,12.23
2022-09-07T10:45:15.799Z,13.65
2022-09-07T10:48:24.028Z,12.37
2022-09-07T10:50:56.955Z,12.75
2022-09-07T10:56:45.405Z,11.23
2022-09-07T11:03:25.022Z,10.43
2022-09-07T11:05:51.831Z,12.85
2022-09-07T11:09:15.916Z,12.77
2022-09-07T11:14:23.803Z,12.60
2022-09-07T11:17:00.150Z,13.07
2022-09-07T11:19:40.040Z,12.88
2022-09-07T11:22:42.238Z,13.10
2022-09-07T11:25:31.614Z,13.98
2022-09-07T11:28:02.555Z,13.13
2022-09-07T11:30:34.303Z,13.20
2022-09-07T11:33:07.075Z,13.18
2022-09-07T11:35:59.693Z,13.80
2022-09-07T11:38:34.002Z,13.35
2022-09-07T11:41:18.018Z,13.73
2022-09-07T11:43:56.721Z,12.32
2022-09-07T11:46:32.640Z,13.50
2022-09-07T11:49:01.943Z,13.10
2022-09-07T11:52:05.051Z,13.25
2022-09-07T11:54:45.259Z,13.45
2022-09-07T11:57:15.949Z,13.13
2022-09-07T12:00:02.803Z,13.02
2022-09-07T12:02:59.385Z,13.20
2022-09-07T12:05:51.605Z,13.70
2022-09-07T12:08:25.091Z,13.48
2022-09-07T12:11:01.890Z,13.15
2022-09-07T12:13:29.219Z,14.27
2022-09-07T12:16:34.376Z,15.07
2022-09-07T12:19:27.948Z,13.90
2022-09-07T12:21:58.025Z,14.52
2022-09-07T12:24:41.429Z,14.25
2022-09-07T12:27:22.521Z,14.63
2022-09-07T12:30:10.835Z,13.90
2022-09-07T12:32:55.662Z,14.75
2022-09-07T12:35:31.032Z,14.07
2022-09-07T12:38:17.627Z,14.63
2022-09-07T12:41:20.579Z,15.23
2022-09-07T12:43:48.204Z,14.33
2022-09-07T12:46:38.870Z,14.60
2022-09-07T12:49:20.443Z,15.02
2022-09-07T12:52:15.129Z,14.05
2022-09-07T12:54:59.836Z,13.93
2022-09-07T12:57:46.272Z,14.87
2022-09-07T13:00:40.947Z,14.63
2022-09-07T13:03:52.605Z,14.32
2022-09-07T13:07:03.928Z,13.82
2022-09-07T13:09:34.546Z,14.27
2022-09-07T13:15:33.477Z,13.15
2022-09-07T13:18:02.647Z,14.48
2022-09-07T13:20:34.818Z,15.05
2022-09-07T13:23:23.273Z,15.70
2022-09-07T13:25:53.767Z,14.13
2022-09-07T13:28:31.987Z,14.10
2022-09-07T13:31:06.050Z,14.55
2022-09-07T13:33:50.641Z,13.48
2022-09-07T13:36:25.812Z,13.65
2022-09-07T13:38:54.574Z,13.60
2022-09-07T13:41:27.276Z,13.50
2022-09-07T13:44:00.921Z,13.43
2022-09-07T13:46:40.555Z,13.18
2022-09-07T13:49:14.116Z,14.07
2022-09-07T13:52:14.443Z,12.97
2022-09-07T13:55:05.324Z,12.35
2022-09-07T13:57:40.187Z,13.75
2022-09-07T14:00:15.242Z,13.27
2022-09-07T14:02:43.470Z,13.50
2022-09-07T14:05:17.499Z,13.00
2022-09-07T14:07:46.121Z,13.23
2022-09-07T14:10:19.802Z,13.93
2022-09-07T14:12:54.007Z,13.07
2022-09-07T14:15:33.383Z,14.43
2022-09-07T14:18:13.035Z,12.83
2022-09-07T14:20:44.298Z,11.23
2022-09-07T14:23:28.172Z,13.15
2022-09-07T14:26:23.104Z,13.75
2022-09-07T14:28:53.973Z,12.82
2022-09-07T14:31:24.090Z,12.30
2022-09-07T14:33:59.535Z,11.38
2022-09-07T14:36:45.363Z,12.27
2022-09-07T14:39:16.197Z,11.85
2022-09-07T14:41:44.490Z,12.55
2022-09-07T14:44:32.524Z,11.70
2022-09-07T14:47:08.244Z,11.70
2022-09-07T14:49:35.743Z,12.32
2022-09-07T14:52:03.692Z,10.93
2022-09-07T14:54:34.100Z,11.32
2022-09-07T14:57:09.774Z,11.83
2022-09-07T14:59:39.403Z,12.15
2022-09-07T15:02:36.831Z,11.52
2022-09-07T15:05:23.518Z,11.73
2022-09-07T15:07:56.952Z,11.43
2022-09-07T15:10:25.555Z,10.87
2022-09-07T15:12:58.570Z,10.93
2022-09-07T15:15:33.983Z,10.27
2022-09-07T15:18:08.881Z,10.48
2022-09-07T15:20:38.530Z,10.85
2022-09-07T15:23:09.804Z,10.87
2022-09-07T15:25:38.331Z,10.70
2022-09-07T15:28:06.590Z,9.75
2022-09-07T15:30:34.139Z,10.73
2022-09-07T15:33:01.951Z,10.75
2022-09-07T15:35:29.349Z,10.30
2022-09-07T15:38:05.510Z,9.50
2022-09-07T15:41:03.863Z,9.38
2022-09-07T15:43:30.719Z,9.85
2022-09-07T15:45:58.677Z,10.18
2022-09-07T15:48:26.368Z,9.80
2022-09-07T15:51:03.455Z,10.63
2022-09-07T15:56:22.067Z,9.85
2022-09-07T15:58:53.887Z,10.90
2022-09-07T16:04:13.491Z,11.90
2022-09-07T16:06:41.921Z,11.65
2022-09-07T16:09:09.664Z,12.10
2022-09-07T16:11:37.083Z,10.98
2022-09-07T16:14:04.570Z,11.47
2022-09-07T16:19:21.085Z,11.77
2022-09-07T16:21:49.119Z,11.25
2022-09-07T16:24:17.442Z,11.40
2022-09-07T16:26:44.995Z,10.53
2022-09-07T16:29:12.676Z,10.57
2022-09-07T16:32:43.923Z,11.50
2022-09-07T16:34:29.746Z,11.00
2022-09-07T16:36:57.157Z,11.48
2022-09-07T16:39:24.630Z,11.03
2022-09-07T16:41:52.642Z,11.07
2022-09-07T16:44:20.051Z,11.05
2022-09-07T16:46:47.548Z,11.23
2022-09-07T16:49:16.750Z,11.00
2022-09-07T16:51:45.778Z,10.93
2022-09-07T16:54:14.346Z,11.60
2022-09-07T16:56:42.012Z,11.95
2022-09-07T16:59:15.997Z,11.73
2022-09-07T17:01:44.022Z,11.43
2022-09-07T17:04:11.959Z,11.77
2022-09-07T17:06:40.270Z,11.02
2022-09-07T17:09:08.414Z,10.77
2022-09-07T17:11:36.939Z,11.02
2022-09-07T17:14:07.728Z,9.93
2022-09-07T17:16:38.007Z,9.97
2022-09-07T17:21:55.492Z,8.95
2022-09-07T17:24:24.836Z,9.00
2022-09-07T17:26:52.339Z,8.82
2022-09-07T17:29:20.102Z,8.80
2022-09-07T17:34:35.457Z,8.50
2022-09-07T17:37:02.882Z,9.00
2022-09-07T17:39:30.402Z,10.38
2022-09-07T17:41:58.324Z,8.27
2022-09-07T17:44:25.759Z,8.50
2022-09-07T17:46:53.184Z,8.80
2022-09-07T17:49:20.958Z,9.25
2022-09-07T17:51:48.483Z,10.10
2022-09-07T17:54:17.642Z,7.97
2022-09-07T17:56:46.076Z,9.55
2022-09-07T18:02:01.315Z,10.05
2022-09-07T18:04:29.248Z,9.57
2022-09-07T18:06:56.757Z,10.00
2022-09-07T18:09:24.225Z,9.80
2022-09-07T18:11:51.925Z,10.68
2022-09-07T18:14:19.749Z,10.35
2022-09-07T18:16:49.872Z,10.77
2022-09-07T18:19:19.962Z,11.00
2022-09-07T18:21:48.198Z,10.30
2022-09-07T18:24:20.261Z,10.40
2022-09-07T18:26:51.330Z,11.00
2022-09-07T18:29:30.199Z,11.15
2022-09-07T18:32:08.032Z,11.40
2022-09-07T18:34:38.202Z,12.63
2022-09-07T18:37:06.791Z,11.32
2022-09-07T18:39:35.674Z,11.52
2022-09-07T18:42:04.021Z,12.10
2022-09-07T18:47:28.068Z,11.25
2022-09-07T18:49:57.094Z,11.90
2022-09-07T18:55:12.857Z,11.55
2022-09-07T18:57:40.307Z,11.93
2022-09-07T19:00:09.788Z,11.23
2022-09-07T19:02:37.554Z,12.10
2022-09-07T19:07:53.408Z,11.40
2022-09-07T19:10:23.366Z,10.73
2022-09-07T19:12:50.768Z,11.27
2022-09-07T19:15:20.490Z,11.18
2022-09-07T19:17:47.944Z,11.52
2022-09-07T19:20:15.412Z,12.07
2022-09-07T19:22:43.166Z,11.00
2022-09-07T19:25:10.677Z,11.45
2022-09-07T19:27:39.351Z,12.30
2022-09-07T19:30:07.615Z,12.07
2022-09-07T19:32:35.008Z,11.02
2022-09-07T19:35:02.631Z,11.37
2022-09-07T19:37:32.716Z,11.38
2022-09-07T19:40:00.688Z,10.55
2022-09-07T19:42:28.244Z,10.55
2022-09-07T19:44:55.941Z,10.48
2022-09-07T19:47:23.936Z,10.97
2022-09-07T19:49:52.325Z,10.20
2022-09-07T19:52:20.057Z,10.25
2022-09-07T19:54:47.436Z,10.30
2022-09-07T19:57:14.819Z,9.73
2022-09-07T19:59:42.535Z,9.97
2022-09-07T20:02:10.569Z,10.10
2022-09-07T20:04:38.308Z,9.70
2022-09-07T20:07:06.655Z,8.70
2022-09-07T20:09:34.103Z,9.70
2022-09-07T20:12:03.794Z,9.27
2022-09-07T20:14:31.243Z,10.23
2022-09-07T20:16:58.678Z,10.02
2022-09-07T20:19:26.471Z,10.02
2022-09-07T20:21:57.254Z,9.60
2022-09-07T20:24:24.851Z,9.30
2022-09-07T20:26:52.548Z,9.52
2022-09-07T20:29:28.717Z,9.65
2022-09-07T20:31:58.931Z,8.88
2022-09-07T20:34:29.922Z,9.90
2022-09-07T20:36:57.656Z,9.10
2022-09-07T20:39:25.478Z,10.10
2022-09-07T20:41:53.087Z,9.93
2022-09-07T20:44:20.911Z,10.25
2022-09-07T20:46:48.381Z,9.65
2022-09-07T20:49:16.001Z,9.77
2022-09-07T20:51:43.743Z,9.20
2022-09-07T20:54:11.236Z,9.82
2022-09-07T20:56:38.672Z,9.57
2022-09-07T20:59:06.885Z,10.27
2022-09-07T21:01:35.255Z,11.03
2022-09-07T21:04:04.035Z,10.68
2022-09-07T21:06:32.996Z,9.85
2022-09-07T21:09:01.107Z,9.85
2022-09-07T21:11:31.442Z,10.52
2022-09-07T21:14:12.384Z,10.33
2022-09-07T21:16:40.415Z,9.82
2022-09-07T21:19:11.002Z,10.80
2022-09-07T21:21:40.922Z,10.65
2022-09-07T21:24:17.822Z,10.38
2022-09-07T21:26:45.595Z,10.07
2022-09-07T21:29:18.986Z,10.77
2022-09-07T21:31:46.631Z,10.50
2022-09-07T21:34:15.274Z,10.07
2022-09-07T21:36:43.003Z,10.15
2022-09-07T21:39:13.797Z,9.73
2022-09-07T21:41:43.550Z,10.18
2022-09-07T21:44:16.523Z,10.20
2022-09-07T21:46:44.981Z,9.73
2022-09-07T21:49:12.864Z,10.32
2022-09-07T21:51:40.456Z,10.23
2022-09-07T21:54:08.824Z,10.57
2022-09-07T21:56:36.575Z,10.82
2022-09-07T21:59:04.765Z,10.98
2022-09-07T22:01:33.551Z,11.20
2022-09-07T22:04:03.169Z,10.60
2022-09-07T22:06:32.552Z,10.40
2022-09-07T22:09:00.858Z,10.57
2022-09-07T22:11:29.976Z,9.63
2022-09-07T22:14:02.785Z,10.32
2022-09-07T22:16:32.748Z,10.07
2022-09-07T22:19:00.540Z,10.18
2022-09-07T22:21:29.644Z,10.65
2022-09-07T22:23:59.797Z,9.95
2022-09-07T22:26:29.395Z,10.15
2022-09-07T22:28:58.686Z,10.27
2022-09-07T22:31:30.754Z,10.70
2022-09-07T22:34:00.351Z,9.63
2022-09-07T22:36:33.727Z,9.05
2022-09-07T22:39:04.095Z,9.40
2022-09-07T22:41:38.238Z,10.77
2022-09-07T22:44:07.103Z,9.38
2022-09-07T22:46:37.190Z,10.18
2022-09-07T22:49:06.447Z,10.55
2022-09-07T22:51:34.500Z,11.10
2022-09-07T22:54:01.995Z,10.13
2022-09-07T22:56:32.406Z,9.88
2022-09-07T22:59:03.516Z,10.40
2022-09-07T23:01:32.122Z,10.00
2022-09-07T23:04:00.488Z,10.48
2022-09-07T23:06:29.108Z,10.33
2022-09-07T23:08:58.887Z,9.88
2022-09-07T23:11:28.503Z,10.40
2022-09-07T23:13:59.770Z,9.45
2022-09-07T23:16:28.257Z,10.63
2022-09-07T23:18:57.928Z,9.57
2022-09-07T23:21:26.666Z,9.98
2022-09-07T23:23:57.034Z,9.65
2022-09-07T23:26:26.531Z,10.70
2022-09-07T23:28:56.164Z,10.55
2022-09-07T23:31:24.956Z,9.20
2022-09-07T23:33:52.717Z,9.45
2022-09-07T23:36:20.510Z,9.68
2022-09-07T23:38:48.543Z,10.15
2022-09-07T23:41:20.043Z,10.32
2022-09-07T23:43:48.462Z,10.13
2022-09-07T23:46:16.210Z,11.38
2022-09-07T23:48:44.624Z,10.55
2022-09-07T23:51:13.787Z,10.32
2022-09-07T23:53:41.786Z,10.70
2022-09-07T23:56:09.489Z,10.40
2022-09-07T23:58:37.165Z,10.77
